sensor_id;sensor_type;location;lat;lon;timestamp;pressure;altitude;pressure_sealevel;temperature;humidity
11049;BME280;5577;42.706;23.160;2023-01-26T00:01:46;94572.97;;;-0.40;100.00
11049;BME280;5577;42.706;23.160;2023-01-26T00:04:30;94568.31;;;-0.43;100.00
11049;BME280;5577;42.706;23.160;2023-01-26T00:07:14;94572.97;;;-0.40;100.00
11049;BME280;5577;42.706;23.160;2023-01-26T00:09:58;94580.78;;;-0.40;100.00
11049;BME280;5577;42.706;23.160;2023-01-26T00:12:42;94578.97;;;-0.45;100.00
11049;BME280;5577;42.706;23.160;2023-01-26T00:15:26;94588.09;;;-0.42;100.00
11049;BME280;5577;42.706;23.160;2023-01-26T00:18:10;94591.69;;;-0.38;100.00
11049;BME280;5577;42.706;23.160;2023-01-26T00:20:55;94574.78;;;-0.41;100.00
11049;BME280;5577;42.706;23.160;2023-01-26T00:23:40;94584.41;;;-0.36;100.00
11049;BME280;5577;42.706;23.160;2023-01-26T00:26:26;94576.06;;;-0.33;100.00
11049;BME280;5577;42.706;23.160;2023-01-26T00:29:11;94549.03;;;-0.37;100.00
11049;BME280;5577;42.706;23.160;2023-01-26T00:31:55;94551.66;;;-0.42;100.00
11049;BME280;5577;42.706;23.160;2023-01-26T00:34:39;94555.06;;;-0.47;100.00
11049;BME280;5577;42.706;23.160;2023-01-26T00:37:23;94552.47;;;-0.47;100.00
11049;BME280;5577;42.706;23.160;2023-01-26T00:40:08;94508.91;;;-0.75;100.00
11049;BME280;5577;42.706;23.160;2023-01-26T00:42:53;94546.75;;;-0.44;100.00
11049;BME280;5577;42.706;23.160;2023-01-26T00:45:37;94530.66;;;-0.56;100.00
11049;BME280;5577;42.706;23.160;2023-01-26T00:48:21;94496.16;;;-0.71;100.00
11049;BME280;5577;42.706;23.160;2023-01-26T00:51:05;94542.31;;;-0.48;100.00
11049;BME280;5577;42.706;23.160;2023-01-26T00:53:49;94533.75;;;-0.49;100.00
11049;BME280;5577;42.706;23.160;2023-01-26T00:56:33;94537.69;;;-0.56;100.00
11049;BME280;5577;42.706;23.160;2023-01-26T00:59:17;94538.44;;;-0.56;100.00
11049;BME280;5577;42.706;23.160;2023-01-26T01:02:01;94526.78;;;-0.58;100.00
11049;BME280;5577;42.706;23.160;2023-01-26T01:04:45;94536.91;;;-0.57;100.00
11049;BME280;5577;42.706;23.160;2023-01-26T01:07:29;94515.13;;;-0.71;100.00
11049;BME280;5577;42.706;23.160;2023-01-26T01:10:13;94524.16;;;-0.58;100.00
11049;BME280;5577;42.706;23.160;2023-01-26T01:12:58;94526.53;;;-0.67;100.00
11049;BME280;5577;42.706;23.160;2023-01-26T01:15:41;94534.88;;;-0.65;100.00
11049;BME280;5577;42.706;23.160;2023-01-26T01:18:25;94524.97;;;-0.63;100.00
11049;BME280;5577;42.706;23.160;2023-01-26T01:21:12;94509.88;;;-0.61;100.00
11049;BME280;5577;42.706;23.160;2023-01-26T01:23:56;94508.03;;;-0.60;100.00
11049;BME280;5577;42.706;23.160;2023-01-26T01:26:41;94510.41;;;-0.64;100.00
11049;BME280;5577;42.706;23.160;2023-01-26T01:29:25;94511.47;;;-0.65;100.00
11049;BME280;5577;42.706;23.160;2023-01-26T01:32:09;94495.38;;;-0.72;100.00
11049;BME280;5577;42.706;23.160;2023-01-26T01:34:53;94506.53;;;-0.66;100.00
11049;BME280;5577;42.706;23.160;2023-01-26T01:37:37;94512.00;;;-0.68;100.00
11049;BME280;5577;42.706;23.160;2023-01-26T01:40:21;94510.41;;;-0.64;100.00
11049;BME280;5577;42.706;23.160;2023-01-26T01:43:10;94507.28;;;-0.61;100.00
11049;BME280;5577;42.706;23.160;2023-01-26T01:45:55;94506.50;;;-0.61;100.00
11049;BME280;5577;42.706;23.160;2023-01-26T01:51:40;94489.13;;;-0.76;100.00
11049;BME280;5577;42.706;23.160;2023-01-26T01:54:29;94501.59;;;-0.68;100.00
11049;BME280;5577;42.706;23.160;2023-01-26T01:57:19;94482.38;;;-0.77;100.00
11049;BME280;5577;42.706;23.160;2023-01-26T02:00:13;94498.72;;;-0.66;100.00
11049;BME280;5577;42.706;23.160;2023-01-26T02:03:07;94499.75;;;-0.67;100.00
11049;BME280;5577;42.706;23.160;2023-01-26T02:08:48;94476.63;;;-0.69;100.00
11049;BME280;5577;42.706;23.160;2023-01-26T02:11:40;94472.75;;;-0.66;100.00
11049;BME280;5577;42.706;23.160;2023-01-26T02:14:28;94454.84;;;-0.83;100.00
11049;BME280;5577;42.706;23.160;2023-01-26T02:17:12;94463.44;;;-0.77;100.00
11049;BME280;5577;42.706;23.160;2023-01-26T02:20:10;94462.13;;;-0.75;100.00
11049;BME280;5577;42.706;23.160;2023-01-26T02:26:10;94452.00;;;-0.81;100.00
11049;BME280;5577;42.706;23.160;2023-01-26T02:28:56;94390.63;;;-1.21;100.00
11049;BME280;5577;42.706;23.160;2023-01-26T02:31:40;94431.28;;;-0.96;100.00
11049;BME280;5577;42.706;23.160;2023-01-26T02:34:24;94446.81;;;-0.81;100.00
11049;BME280;5577;42.706;23.160;2023-01-26T02:37:13;94446.84;;;-0.86;100.00
11049;BME280;5577;42.706;23.160;2023-01-26T02:40:20;94438.25;;;-0.87;100.00
11049;BME280;5577;42.706;23.160;2023-01-26T02:43:08;94442.97;;;-0.94;100.00
11049;BME280;5577;42.706;23.160;2023-01-26T02:45:53;94421.69;;;-0.96;100.00
11049;BME280;5577;42.706;23.160;2023-01-26T02:48:37;94421.91;;;-0.92;100.00
11049;BME280;5577;42.706;23.160;2023-01-26T02:51:40;94404.28;;;-1.00;100.00
11049;BME280;5577;42.706;23.160;2023-01-26T02:54:24;94422.91;;;-0.83;100.00
11049;BME280;5577;42.706;23.160;2023-01-26T02:57:27;94428.66;;;-0.86;100.00
11049;BME280;5577;42.706;23.160;2023-01-26T03:00:17;94417.97;;;-0.85;100.00
11049;BME280;5577;42.706;23.160;2023-01-26T03:03:09;94402.41;;;-0.90;100.00
11049;BME280;5577;42.706;23.160;2023-01-26T03:05:55;94411.25;;;-0.91;100.00
11049;BME280;5577;42.706;23.160;2023-01-26T03:08:39;94394.13;;;-0.92;100.00
11049;BME280;5577;42.706;23.160;2023-01-26T03:11:23;94393.84;;;-0.95;100.00
11049;BME280;5577;42.706;23.160;2023-01-26T03:14:24;94405.56;;;-0.93;100.00
11049;BME280;5577;42.706;23.160;2023-01-26T03:17:08;94401.66;;;-0.90;100.00
11049;BME280;5577;42.706;23.160;2023-01-26T03:19:52;94396.44;;;-0.90;100.00
11049;BME280;5577;42.706;23.160;2023-01-26T03:22:55;94387.88;;;-0.91;100.00
11049;BME280;5577;42.706;23.160;2023-01-26T03:25:58;94381.91;;;-0.91;100.00
11049;BME280;5577;42.706;23.160;2023-01-26T03:29:01;94390.47;;;-0.91;100.00
11049;BME280;5577;42.706;23.160;2023-01-26T03:31:45;94387.59;;;-0.89;100.00
11049;BME280;5577;42.706;23.160;2023-01-26T03:34:29;94383.72;;;-0.92;100.00
11049;BME280;5577;42.706;23.160;2023-01-26T03:37:13;94380.84;;;-0.90;100.00
11049;BME280;5577;42.706;23.160;2023-01-26T03:39:57;94382.66;;;-0.86;100.00
11049;BME280;5577;42.706;23.160;2023-01-26T03:43:06;94379.22;;;-0.81;100.00
11049;BME280;5577;42.706;23.160;2023-01-26T03:46:09;94376.16;;;-0.88;100.00
11049;BME280;5577;42.706;23.160;2023-01-26T03:49:12;94373.06;;;-0.95;100.00
11049;BME280;5577;42.706;23.160;2023-01-26T03:52:15;94366.34;;;-0.96;100.00
11049;BME280;5577;42.706;23.160;2023-01-26T03:55:18;94369.72;;;-0.96;100.00
11049;BME280;5577;42.706;23.160;2023-01-26T03:58:20;94334.22;;;-1.15;100.00
11049;BME280;5577;42.706;23.160;2023-01-26T04:01:05;94351.22;;;-0.89;100.00
11049;BME280;5577;42.706;23.160;2023-01-26T04:03:50;94336.78;;;-1.05;100.00
11049;BME280;5577;42.706;23.160;2023-01-26T04:06:53;94363.19;;;-0.93;100.00
11049;BME280;5577;42.706;23.160;2023-01-26T04:09:56;94337.16;;;-0.88;100.00
11049;BME280;5577;42.706;23.160;2023-01-26T04:12:40;94335.91;;;-0.91;100.00
11049;BME280;5577;42.706;23.160;2023-01-26T04:15:24;94326.03;;;-0.89;100.00
11049;BME280;5577;42.706;23.160;2023-01-26T04:18:27;94330.47;;;-0.94;100.00
11049;BME280;5577;42.706;23.160;2023-01-26T04:21:30;94318.78;;;-0.97;100.00
11049;BME280;5577;42.706;23.160;2023-01-26T04:24:17;94316.19;;;-0.97;100.00
11049;BME280;5577;42.706;23.160;2023-01-26T04:27:05;94298.28;;;-0.98;100.00
11049;BME280;5577;42.706;23.160;2023-01-26T04:29:48;94310.25;;;-1.02;100.00
11049;BME280;5577;42.706;23.160;2023-01-26T04:32:33;94315.69;;;-1.04;100.00
11049;BME280;5577;42.706;23.160;2023-01-26T04:35:16;94300.16;;;-1.09;100.00
11049;BME280;5577;42.706;23.160;2023-01-26T04:38:00;94306.63;;;-1.06;100.00
11049;BME280;5577;42.706;23.160;2023-01-26T04:40:52;94313.09;;;-0.99;100.00
11049;BME280;5577;42.706;23.160;2023-01-26T04:43:36;94319.56;;;-0.96;100.00
11049;BME280;5577;42.706;23.160;2023-01-26T04:46:20;94317.00;;;-1.01;100.00
11049;BME280;5577;42.706;23.160;2023-01-26T04:49:04;94327.13;;;-1.00;100.00
11049;BME280;5577;42.706;23.160;2023-01-26T04:51:48;94324.81;;;-1.01;100.00
11049;BME280;5577;42.706;23.160;2023-01-26T04:54:32;94317.00;;;-1.01;100.00
11049;BME280;5577;42.706;23.160;2023-01-26T04:57:16;94327.41;;;-1.01;100.00
11049;BME280;5577;42.706;23.160;2023-01-26T05:00:03;94318.28;;;-0.99;100.00
11049;BME280;5577;42.706;23.160;2023-01-26T05:02:47;94312.56;;;-1.01;100.00
11049;BME280;5577;42.706;23.160;2023-01-26T05:05:36;94313.56;;;-0.97;100.00
11049;BME280;5577;42.706;23.160;2023-01-26T05:08:20;94308.69;;;-1.03;100.00
11049;BME280;5577;42.706;23.160;2023-01-26T05:11:05;94309.22;;;-1.01;100.00
11049;BME280;5577;42.706;23.160;2023-01-26T05:13:49;94307.63;;;-1.02;100.00
11049;BME280;5577;42.706;23.160;2023-01-26T05:16:33;94299.84;;;-1.02;100.00
11049;BME280;5577;42.706;23.160;2023-01-26T05:19:16;94312.56;;;-1.01;100.00
11049;BME280;5577;42.706;23.160;2023-01-26T05:22:00;94304.28;;;-1.03;100.00
11049;BME280;5577;42.706;23.160;2023-01-26T05:24:44;94300.38;;;-1.00;100.00
11049;BME280;5577;42.706;23.160;2023-01-26T05:27:28;94300.59;;;-0.97;100.00
11049;BME280;5577;42.706;23.160;2023-01-26T05:30:12;94298.78;;;-0.96;100.00
11049;BME280;5577;42.706;23.160;2023-01-26T05:33:01;94282.69;;;-0.98;100.00
11049;BME280;5577;42.706;23.160;2023-01-26T05:35:48;94280.84;;;-0.98;100.00
11049;BME280;5577;42.706;23.160;2023-01-26T05:38:33;94299.03;;;-0.98;100.00
11049;BME280;5577;42.706;23.160;2023-01-26T05:41:17;94274.91;;;-1.03;100.00
11049;BME280;5577;42.706;23.160;2023-01-26T05:44:01;94291.78;;;-0.96;100.00
11049;BME280;5577;42.706;23.160;2023-01-26T05:46:45;94292.25;;;-0.94;100.00
11049;BME280;5577;42.706;23.160;2023-01-26T05:49:29;94287.06;;;-0.94;100.00
11049;BME280;5577;42.706;23.160;2023-01-26T05:52:15;94290.97;;;-0.91;100.00
11049;BME280;5577;42.706;23.160;2023-01-26T05:55:00;94298.19;;;-0.88;100.00
11049;BME280;5577;42.706;23.160;2023-01-26T05:57:44;94300.56;;;-0.92;100.00
11049;BME280;5577;42.706;23.160;2023-01-26T06:00:28;94261.50;;;-1.15;100.00
11049;BME280;5577;42.706;23.160;2023-01-26T06:03:12;94296.91;;;-0.86;100.00
11049;BME280;5577;42.706;23.160;2023-01-26T06:05:56;94289.59;;;-0.84;100.00
11049;BME280;5577;42.706;23.160;2023-01-26T06:08:40;94295.56;;;-0.83;100.00
11049;BME280;5577;42.706;23.160;2023-01-26T06:11:24;94296.06;;;-0.81;100.00
11049;BME280;5577;42.706;23.160;2023-01-26T06:14:08;94291.59;;;-0.76;100.00
11049;BME280;5577;42.706;23.160;2023-01-26T06:16:52;94284.91;;;-0.82;100.00
11049;BME280;5577;42.706;23.160;2023-01-26T06:19:37;94291.13;;;-0.78;100.00
11049;BME280;5577;42.706;23.160;2023-01-26T06:22:22;94289.78;;;-0.75;100.00
11049;BME280;5577;42.706;23.160;2023-01-26T06:25:06;94283.00;;;-0.71;100.00
11049;BME280;5577;42.706;23.160;2023-01-26T06:27:50;94280.19;;;-0.75;100.00
11049;BME280;5577;42.706;23.160;2023-01-26T06:30:34;94275.72;;;-0.69;100.00
11049;BME280;5577;42.706;23.160;2023-01-26T06:33:18;94282.19;;;-0.67;100.00
11049;BME280;5577;42.706;23.160;2023-01-26T06:36:04;94267.88;;;-0.64;100.00
11049;BME280;5577;42.706;23.160;2023-01-26T06:38:50;94264.78;;;-0.66;100.00
11049;BME280;5577;42.706;23.160;2023-01-26T06:41:35;94269.97;;;-0.66;100.00
11049;BME280;5577;42.706;23.160;2023-01-26T06:44:19;94258.44;;;-0.55;100.00
11049;BME280;5577;42.706;23.160;2023-01-26T06:47:04;94276.41;;;-0.59;100.00
11049;BME280;5577;42.706;23.160;2023-01-26T06:49:48;94261.03;;;-0.55;100.00
11049;BME280;5577;42.706;23.160;2023-01-26T06:52:34;94256.31;;;-0.48;100.00
11049;BME280;5577;42.706;23.160;2023-01-26T06:55:49;94257.25;;;-0.39;100.00
11049;BME280;5577;42.706;23.160;2023-01-26T06:58:34;94251.50;;;-0.36;100.00
11049;BME280;5577;42.706;23.160;2023-01-26T07:01:21;94200.88;;;-0.72;100.00
11049;BME280;5577;42.706;23.160;2023-01-26T07:04:05;94209.13;;;-0.65;100.00
11049;BME280;5577;42.706;23.160;2023-01-26T07:06:50;94256.38;;;-0.30;100.00
11049;BME280;5577;42.706;23.160;2023-01-26T07:09:34;94258.75;;;-0.33;100.00
11049;BME280;5577;42.706;23.160;2023-01-26T07:12:18;94262.81;;;-0.22;100.00
11049;BME280;5577;42.706;23.160;2023-01-26T07:15:02;94257.31;;;-0.21;100.00
11049;BME280;5577;42.706;23.160;2023-01-26T07:17:47;94260.66;;;-0.15;100.00
11049;BME280;5577;42.706;23.160;2023-01-26T07:20:30;94242.97;;;-0.18;100.00
11049;BME280;5577;42.706;23.160;2023-01-26T07:23:14;94239.84;;;-0.15;100.00
11049;BME280;5577;42.706;23.160;2023-01-26T07:25:58;94233.03;;;-0.11;100.00
11049;BME280;5577;42.706;23.160;2023-01-26T07:28:42;94236.06;;;-0.04;100.00
11049;BME280;5577;42.706;23.160;2023-01-26T07:31:26;94253.47;;;0.00;100.00
11049;BME280;5577;42.706;23.160;2023-01-26T07:34:10;94242.28;;;0.00;100.00
11049;BME280;5577;42.706;23.160;2023-01-26T07:36:54;94243.13;;;-0.05;100.00
11049;BME280;5577;42.706;23.160;2023-01-26T07:39:38;94231.81;;;0.05;100.00
11049;BME280;5577;42.706;23.160;2023-01-26T07:42:22;94223.19;;;0.10;100.00
11049;BME280;5577;42.706;23.160;2023-01-26T07:45:06;94225.81;;;0.04;100.00
11049;BME280;5577;42.706;23.160;2023-01-26T07:47:53;94180.78;;;-0.15;100.00
11049;BME280;5577;42.706;23.160;2023-01-26T07:50:37;94241.28;;;0.20;100.00
11049;BME280;5577;42.706;23.160;2023-01-26T07:53:21;94239.31;;;0.30;100.00
11049;BME280;5577;42.706;23.160;2023-01-26T07:56:13;94241.41;;;0.28;100.00
11049;BME280;5577;42.706;23.160;2023-01-26T07:58:58;94220.97;;;0.40;100.00
11049;BME280;5577;42.706;23.160;2023-01-26T08:01:43;94237.94;;;0.38;100.00
11049;BME280;5577;42.706;23.160;2023-01-26T08:04:27;94227.13;;;0.26;100.00
11049;BME280;5577;42.706;23.160;2023-01-26T08:07:11;94214.81;;;0.31;100.00
11049;BME280;5577;42.706;23.160;2023-01-26T08:09:55;94218.00;;;0.47;100.00
11049;BME280;5577;42.706;23.160;2023-01-26T08:12:41;94224.63;;;0.39;100.00
11049;BME280;5577;42.706;23.160;2023-01-26T08:15:26;94216.66;;;0.31;100.00
11049;BME280;5577;42.706;23.160;2023-01-26T08:18:10;94206.81;;;0.28;100.00
11049;BME280;5577;42.706;23.160;2023-01-26T08:20:54;94197.38;;;0.32;100.00
11049;BME280;5577;42.706;23.160;2023-01-26T08:23:39;94198.88;;;0.38;100.00
11049;BME280;5577;42.706;23.160;2023-01-26T08:26:23;94193.59;;;0.43;100.00
11049;BME280;5577;42.706;23.160;2023-01-26T08:29:07;94200.69;;;0.37;100.00
11049;BME280;5577;42.706;23.160;2023-01-26T08:31:51;94194.78;;;0.32;100.00
11049;BME280;5577;42.706;23.160;2023-01-26T08:34:36;94208.94;;;0.44;100.00
11049;BME280;5577;42.706;23.160;2023-01-26T08:37:20;94182.53;;;0.32;100.00
11049;BME280;5577;42.706;23.160;2023-01-26T08:40:04;94192.09;;;0.37;100.00
11049;BME280;5577;42.706;23.160;2023-01-26T08:42:50;94170.66;;;0.26;100.00
11049;BME280;5577;42.706;23.160;2023-01-26T08:45:34;94207.53;;;0.52;100.00
11049;BME280;5577;42.706;23.160;2023-01-26T08:48:18;94208.44;;;0.61;100.00
11049;BME280;5577;42.706;23.160;2023-01-26T08:51:03;94215.22;;;0.62;100.00
11049;BME280;5577;42.706;23.160;2023-01-26T08:53:47;94207.03;;;0.50;100.00
11049;BME280;5577;42.706;23.160;2023-01-26T08:56:31;94197.03;;;0.57;100.00
11049;BME280;5577;42.706;23.160;2023-01-26T08:59:15;94190.22;;;0.61;100.00
11049;BME280;5577;42.706;23.160;2023-01-26T09:01:59;94200.72;;;0.56;100.00
11049;BME280;5577;42.706;23.160;2023-01-26T09:04:43;94204.22;;;0.65;100.00
11049;BME280;5577;42.706;23.160;2023-01-26T09:07:27;94203.66;;;0.68;100.00
11049;BME280;5577;42.706;23.160;2023-01-26T09:10:11;94201.28;;;0.71;100.00
11049;BME280;5577;42.706;23.160;2023-01-26T09:12:56;94206.91;;;0.78;100.00
11049;BME280;5577;42.706;23.160;2023-01-26T09:15:40;94198.03;;;0.79;100.00
11049;BME280;5577;42.706;23.160;2023-01-26T09:18:26;94191.75;;;0.80;100.00
11049;BME280;5577;42.706;23.160;2023-01-26T09:21:13;94188.84;;;0.82;100.00
11049;BME280;5577;42.706;23.160;2023-01-26T09:23:59;94183.16;;;0.80;100.00
11049;BME280;5577;42.706;23.160;2023-01-26T09:26:43;94180.19;;;0.86;100.00
11049;BME280;5577;42.706;23.160;2023-01-26T09:29:27;94173.16;;;0.87;100.00
11049;BME280;5577;42.706;23.160;2023-01-26T09:32:11;94161.53;;;0.79;100.00
11049;BME280;5577;42.706;23.160;2023-01-26T09:34:55;94153.22;;;0.77;100.00
11049;BME280;5577;42.706;23.160;2023-01-26T09:37:39;94137.41;;;0.74;100.00
11049;BME280;5577;42.706;23.160;2023-01-26T09:40:54;94148.72;;;0.83;100.00
11049;BME280;5577;42.706;23.160;2023-01-26T09:50:01;94151.03;;;0.84;100.00
11049;BME280;5577;42.706;23.160;2023-01-26T09:53:11;94149.44;;;0.88;100.00
11049;BME280;5577;42.706;23.160;2023-01-26T09:55:58;94139.97;;;0.92;100.00
11049;BME280;5577;42.706;23.160;2023-01-26T09:58:46;94110.09;;;0.71;100.00
11049;BME280;5577;42.706;23.160;2023-01-26T10:01:38;94136.59;;;0.92;100.00
11049;BME280;5577;42.706;23.160;2023-01-26T10:07:11;94138.34;;;0.96;100.00
11049;BME280;5577;42.706;23.160;2023-01-26T10:09:55;94139.88;;;0.97;100.00
11049;BME280;5577;42.706;23.160;2023-01-26T10:12:40;94134.94;;;0.96;100.00
11049;BME280;5577;42.706;23.160;2023-01-26T10:15:36;94122.88;;;1.00;100.00
11049;BME280;5577;42.706;23.160;2023-01-26T10:18:50;94126.00;;;1.02;100.00
11049;BME280;5577;42.706;23.160;2023-01-26T10:21:39;94077.31;;;0.84;100.00
11049;BME280;5577;42.706;23.160;2023-01-26T10:24:25;94112.06;;;0.93;100.00
11049;BME280;5577;42.706;23.160;2023-01-26T10:27:11;94091.16;;;0.98;100.00
11049;BME280;5577;42.706;23.160;2023-01-26T10:29:57;94068.53;;;0.80;100.00
11049;BME280;5577;42.706;23.160;2023-01-26T10:32:42;94081.19;;;1.00;100.00
11049;BME280;5577;42.706;23.160;2023-01-26T10:35:27;94072.63;;;0.99;100.00
11049;BME280;5577;42.706;23.160;2023-01-26T10:38:27;94071.25;;;1.02;100.00
11049;BME280;5577;42.706;23.160;2023-01-26T10:41:26;94058.72;;;1.04;100.00
11049;BME280;5577;42.706;23.160;2023-01-26T10:47:18;94059.13;;;1.11;100.00
11049;BME280;5577;42.706;23.160;2023-01-26T10:50:33;94042.53;;;1.20;100.00
11049;BME280;5577;42.706;23.160;2023-01-26T10:53:23;94035.34;;;1.12;100.00
11049;BME280;5577;42.706;23.160;2023-01-26T10:56:12;94049.09;;;1.18;100.00
11049;BME280;5577;42.706;23.160;2023-01-26T10:59:01;94023.78;;;1.18;100.00
11049;BME280;5577;42.706;23.160;2023-01-26T11:02:00;94013.84;;;1.20;100.00
11049;BME280;5577;42.706;23.160;2023-01-26T11:07:52;93992.41;;;1.23;100.00
11049;BME280;5577;42.706;23.160;2023-01-26T11:10:51;93996.53;;;1.38;100.00
11049;BME280;5577;42.706;23.160;2023-01-26T11:13:36;93990.25;;;1.39;100.00
11049;BME280;5577;42.706;23.160;2023-01-26T11:16:22;93980.88;;;1.38;100.00
11049;BME280;5577;42.706;23.160;2023-01-26T11:19:12;93990.06;;;1.35;100.00
11049;BME280;5577;42.706;23.160;2023-01-26T11:21:58;93982.34;;;1.44;100.00
11049;BME280;5577;42.706;23.160;2023-01-26T11:27:44;93942.84;;;1.37;100.00
11049;BME280;5577;42.706;23.160;2023-01-26T11:30:54;93960.38;;;1.45;100.00
11049;BME280;5577;42.706;23.160;2023-01-26T11:36:47;93964.06;;;1.44;100.00
11049;BME280;5577;42.706;23.160;2023-01-26T11:40:28;93954.00;;;1.51;100.00
11049;BME280;5577;42.706;23.160;2023-01-26T11:48:37;93947.28;;;1.36;100.00
11049;BME280;5577;42.706;23.160;2023-01-26T12:00:11;93925.41;;;1.10;100.00
11049;BME280;5577;42.706;23.160;2023-01-26T12:03:17;93932.16;;;1.11;100.00
11049;BME280;5577;42.706;23.160;2023-01-26T12:06:05;93915.75;;;1.11;100.00
11049;BME280;5577;42.706;23.160;2023-01-26T12:08:59;93916.44;;;1.16;100.00
11049;BME280;5577;42.706;23.160;2023-01-26T12:11:58;93913.22;;;1.19;100.00
11049;BME280;5577;42.706;23.160;2023-01-26T12:18:31;93889.75;;;1.19;100.00
11049;BME280;5577;42.706;23.160;2023-01-26T12:21:19;93887.25;;;1.14;100.00
11049;BME280;5577;42.706;23.160;2023-01-26T12:24:05;93889.94;;;1.23;100.00
11049;BME280;5577;42.706;23.160;2023-01-26T12:26:52;93880.28;;;1.23;100.00
11049;BME280;5577;42.706;23.160;2023-01-26T12:29:48;93871.88;;;1.26;100.00
11049;BME280;5577;42.706;23.160;2023-01-26T12:32:35;93865.69;;;1.22;100.00
11049;BME280;5577;42.706;23.160;2023-01-26T12:35:35;93872.34;;;1.28;100.00
11049;BME280;5577;42.706;23.160;2023-01-26T12:44:57;93850.69;;;1.06;100.00
11049;BME280;5577;42.706;23.160;2023-01-26T12:47:54;93846.66;;;0.86;100.00
11049;BME280;5577;42.706;23.160;2023-01-26T12:50:51;93865.47;;;1.32;100.00
11049;BME280;5577;42.706;23.160;2023-01-26T12:54:01;93862.00;;;1.37;100.00
11049;BME280;5577;42.706;23.160;2023-01-26T12:56:51;93861.44;;;1.26;100.00
11049;BME280;5577;42.706;23.160;2023-01-26T12:59:37;93858.72;;;1.31;100.00
11049;BME280;5577;42.706;23.160;2023-01-26T13:02:30;93843.69;;;1.28;100.00
11049;BME280;5577;42.706;23.160;2023-01-26T13:05:25;93844.16;;;1.30;100.00
11049;BME280;5577;42.706;23.160;2023-01-26T13:11:39;93855.84;;;1.33;100.00
11049;BME280;5577;42.706;23.160;2023-01-26T13:23:41;93851.97;;;1.30;100.00
11049;BME280;5577;42.706;23.160;2023-01-26T13:34:55;93830.63;;;1.28;100.00
11049;BME280;5577;42.706;23.160;2023-01-26T13:40:49;93821.72;;;1.43;100.00
11049;BME280;5577;42.706;23.160;2023-01-26T13:43:45;93822.88;;;1.37;100.00
11049;BME280;5577;42.706;23.160;2023-01-26T13:46:36;93826.84;;;1.34;100.00
11049;BME280;5577;42.706;23.160;2023-01-26T13:49:39;93752.81;;;1.00;100.00
11049;BME280;5577;42.706;23.160;2023-01-26T13:52:24;93808.91;;;1.33;100.00
11049;BME280;5577;42.706;23.160;2023-01-26T13:55:12;93804.91;;;1.35;100.00
11049;BME280;5577;42.706;23.160;2023-01-26T13:58:15;93799.72;;;1.35;100.00
11049;BME280;5577;42.706;23.160;2023-01-26T14:01:05;93786.38;;;1.37;100.00
11049;BME280;5577;42.706;23.160;2023-01-26T14:04:01;93773.16;;;1.33;100.00
11049;BME280;5577;42.706;23.160;2023-01-26T14:07:07;93789.19;;;1.49;100.00
11049;BME280;5577;42.706;23.160;2023-01-26T14:09:57;93775.72;;;1.47;100.00
11049;BME280;5577;42.706;23.160;2023-01-26T14:12:44;93792.28;;;1.51;100.00
11049;BME280;5577;42.706;23.160;2023-01-26T14:15:30;93795.19;;;1.49;100.00
11049;BME280;5577;42.706;23.160;2023-01-26T14:18:19;93789.97;;;1.49;100.00
11049;BME280;5577;42.706;23.160;2023-01-26T14:21:17;93787.97;;;1.46;100.00
11049;BME280;5577;42.706;23.160;2023-01-26T14:24:07;93777.47;;;1.38;100.00
11049;BME280;5577;42.706;23.160;2023-01-26T14:26:51;93791.16;;;1.43;100.00
11049;BME280;5577;42.706;23.160;2023-01-26T14:29:37;93791.72;;;1.54;100.00
11049;BME280;5577;42.706;23.160;2023-01-26T14:32:22;93785.56;;;1.50;100.00
11049;BME280;5577;42.706;23.160;2023-01-26T14:35:19;93771.88;;;1.53;100.00
11049;BME280;5577;42.706;23.160;2023-01-26T14:40:56;93726.34;;;1.28;100.00
11049;BME280;5577;42.706;23.160;2023-01-26T14:43:41;93764.19;;;1.48;100.00
11049;BME280;5577;42.706;23.160;2023-01-26T14:46:53;93766.50;;;1.49;100.00
11049;BME280;5577;42.706;23.160;2023-01-26T14:52:29;93762.81;;;1.50;100.00
11049;BME280;5577;42.706;23.160;2023-01-26T14:55:20;93755.44;;;1.44;100.00
11049;BME280;5577;42.706;23.160;2023-01-26T14:58:14;93755.88;;;1.46;100.00
11049;BME280;5577;42.706;23.160;2023-01-26T15:01:02;93768.88;;;1.15;100.00
11049;BME280;5577;42.706;23.160;2023-01-26T15:03:49;93760.19;;;0.98;100.00
11049;BME280;5577;42.706;23.160;2023-01-26T15:06:34;93754.94;;;0.76;100.00
11049;BME280;5577;42.706;23.160;2023-01-26T15:09:25;93758.50;;;0.66;100.00
11049;BME280;5577;42.706;23.160;2023-01-26T15:12:12;93749.09;;;0.57;100.00
11049;BME280;5577;42.706;23.160;2023-01-26T15:15:00;93748.00;;;0.58;100.00
11049;BME280;5577;42.706;23.160;2023-01-26T15:17:44;93738.41;;;0.45;100.00
11049;BME280;5577;42.706;23.160;2023-01-26T15:23:33;93737.88;;;0.21;100.00
11049;BME280;5577;42.706;23.160;2023-01-26T15:26:27;93730.34;;;0.19;100.00
11049;BME280;5577;42.706;23.160;2023-01-26T15:29:23;93718.19;;;0.15;100.00
11049;BME280;5577;42.706;23.160;2023-01-26T15:32:26;93715.81;;;0.18;100.00
11049;BME280;5577;42.706;23.160;2023-01-26T15:38:11;93687.47;;;0.03;100.00
11049;BME280;5577;42.706;23.160;2023-01-26T15:40:55;93700.38;;;0.08;100.00
11049;BME280;5577;42.706;23.160;2023-01-26T15:43:39;93698.34;;;0.19;100.00
11049;BME280;5577;42.706;23.160;2023-01-26T15:46:24;93701.22;;;0.17;100.00
11049;BME280;5577;42.706;23.160;2023-01-26T15:49:08;93694.00;;;0.14;100.00
11049;BME280;5577;42.706;23.160;2023-01-26T15:51:52;93627.88;;;-0.34;100.00
11049;BME280;5577;42.706;23.160;2023-01-26T15:54:36;93699.63;;;-0.06;100.00
11049;BME280;5577;42.706;23.160;2023-01-26T15:57:20;93697.72;;;-0.14;100.00
11049;BME280;5577;42.706;23.160;2023-01-26T16:00:04;93689.91;;;-0.14;100.00
11049;BME280;5577;42.706;23.160;2023-01-26T16:02:50;93695.97;;;-0.19;100.00
11049;BME280;5577;42.706;23.160;2023-01-26T16:05:34;93674.75;;;-0.39;100.00
11049;BME280;5577;42.706;23.160;2023-01-26T16:08:18;93683.63;;;-0.27;100.00
11049;BME280;5577;42.706;23.160;2023-01-26T16:11:07;93684.41;;;-0.26;100.00
11049;BME280;5577;42.706;23.160;2023-01-26T16:13:52;93694.72;;;-0.21;100.00
11049;BME280;5577;42.706;23.160;2023-01-26T16:16:37;93696.53;;;-0.22;100.00